»·PEaware :: DAL9519 KSLC-KLAS

DAL9519 :: KSLC-KLAS

FLIGHT INFORMATION

Flight Status: Arrived
Operator:
Delta Air Lines
More flights by this operator :: More flights under this callsign
Pilot: Joe C. (19058)
Aircraft: BOEING 737-900
(B739)
More flights by this aircraft type
Origin: KSLC Salt Lake City Intl
United States
Destination: KLAS McCarran Intl
United States
More flights between these airports :: More routes between these airports
Route: +ARCHZ1 MLF MPIRE SITEE3 KLAS
File this flight plan on PilotEdge
Remarks:
Altitude:
(Current/Filed)
34,000ft
Speed:
(Current/Filed)
110kts
Departed: 28-Aug-18 05:24 PM
Arrived: 28-Aug-18 06:38 PM
Distance/Time
Traveled:
320nm/1:14
Distance/Time
To Go:
Arrived

Flight Plot

Page will automatically refresh every two minutes.

Flight plan parsing failed; only flown route is shown


Map Options




Map Legend


Flown Route
Filed Route
Departure Airport
Arrival Airport
Navaid (VOR, NDB)
Fix

Horizontal Profiles

Position Reports

Time Latitude Longitude Heading Altitude Ground
Speed
28-Aug-18 17:09 40.785565 -111.978041 227 4225ft 0kts
28-Aug-18 17:10 40.785565 -111.978041 227 4225ft 0kts
28-Aug-18 17:11 40.785565 -111.978041 227 4225ft 0kts
28-Aug-18 17:12 40.785565 -111.978041 227 4225ft 0kts
28-Aug-18 17:13 40.785565 -111.978041 227 4225ft 0kts
28-Aug-18 17:14 40.785565 -111.978041 227 4225ft 0kts
28-Aug-18 17:15 40.785565 -111.978041 227 4225ft 0kts
28-Aug-18 17:16 40.785565 -111.978041 227 4225ft 0kts
28-Aug-18 17:17 40.785565 -111.978041 227 4225ft 0kts
28-Aug-18 17:18 40.785827 -111.978008 127 4225ft 2kts
28-Aug-18 17:19 40.785869 -111.978124 101 4225ft 0kts
28-Aug-18 17:20 40.785704 -111.977067 99 4225ft 11kts
28-Aug-18 17:21 40.780926 -111.976010 174 4227ft 26kts
28-Aug-18 17:22 40.774522 -111.974631 106 4227ft 0kts
28-Aug-18 17:23 40.774522 -111.974631 106 4227ft 0kts
28-Aug-18 17:24 40.774631 -111.973703 64 4227ft 15kts
28-Aug-18 17:25 40.799155 -111.976091 353 4230ft 180kts
28-Aug-18 17:26 40.845966 -112.003418 292 5747ft 231kts
28-Aug-18 17:27 40.851873 -112.094386 271 6901ft 257kts
28-Aug-18 17:28 40.853639 -112.188065 267 9661ft 265kts
28-Aug-18 17:29 40.800990 -112.259705 195 11257ft 321kts
28-Aug-18 17:30 40.712045 -112.282353 190 13949ft 334kts
28-Aug-18 17:31 40.618802 -112.301319 190 16403ft 347kts
28-Aug-18 17:32 40.523773 -112.327657 198 18611ft 359kts
28-Aug-18 17:33 40.426991 -112.367282 199 20643ft 371kts
28-Aug-18 17:34 40.327445 -112.408012 199 22491ft 382kts
28-Aug-18 17:35 40.224877 -112.449775 198 24186ft 393kts
28-Aug-18 17:36 40.123773 -112.506030 210 25717ft 401kts
28-Aug-18 17:37 40.024999 -112.576553 210 27086ft 411kts
28-Aug-18 17:38 39.923516 -112.648200 210 28350ft 420kts
28-Aug-18 17:39 39.820354 -112.720554 209 29537ft 425kts
28-Aug-18 17:40 39.716417 -112.793075 209 30847ft 423kts
28-Aug-18 17:41 39.603003 -112.829936 187 31872ft 426kts
28-Aug-18 17:42 39.486004 -112.847561 187 32825ft 425kts
28-Aug-18 17:43 39.368886 -112.865053 186 33621ft 424kts
28-Aug-18 17:44 39.251924 -112.882478 186 34141ft 425kts
28-Aug-18 17:45 39.135441 -112.899702 186 34144ft 423kts
28-Aug-18 17:46 39.018798 -112.916950 186 34136ft 424kts
28-Aug-18 17:47 38.901500 -112.934043 190 34132ft 414kts
28-Aug-18 17:48 38.791796 -112.950019 191 34132ft 398kts
28-Aug-18 17:49 38.681049 -112.966285 191 34132ft 408kts
28-Aug-18 17:50 38.566628 -112.983031 190 34132ft 421kts
28-Aug-18 17:51 38.449197 -113.000109 190 34128ft 430kts
28-Aug-18 17:52 38.332035 -113.025838 208 34167ft 422kts
28-Aug-18 17:53 38.226590 -113.092874 209 34129ft 427kts
28-Aug-18 17:54 38.119506 -113.159501 209 34135ft 430kts
28-Aug-18 17:55 38.012273 -113.225460 209 34148ft 431kts
28-Aug-18 17:56 37.904403 -113.291416 209 34153ft 432kts
28-Aug-18 17:57 37.796428 -113.357210 209 34152ft 432kts
28-Aug-18 17:58 37.688255 -113.422818 209 34153ft 433kts
28-Aug-18 17:59 37.579858 -113.488292 209 34150ft 433kts
28-Aug-18 18:00 37.472116 -113.555668 210 34032ft 434kts
28-Aug-18 18:01 37.364308 -113.624634 210 33528ft 435kts
28-Aug-18 18:02 37.257211 -113.692987 209 31253ft 434kts
28-Aug-18 18:03 37.151638 -113.760150 208 28614ft 422kts
28-Aug-18 18:04 37.048311 -113.825768 208 26086ft 406kts
28-Aug-18 18:05 36.954141 -113.885445 207 23993ft 355kts
28-Aug-18 18:06 36.862934 -113.934293 204 23996ft 365kts
28-Aug-18 18:07 36.768527 -113.984064 204 22245ft 365kts
28-Aug-18 18:08 36.677594 -114.031835 203 19351ft 350kts
28-Aug-18 18:09 36.588382 -114.080601 213 17701ft 346kts
28-Aug-18 18:10 36.530318 -114.175588 235 16216ft 347kts
28-Aug-18 18:11 36.479083 -114.275297 235 14701ft 343kts
28-Aug-18 18:12 36.428393 -114.373811 235 13218ft 329kts
28-Aug-18 18:13 36.383408 -114.461137 236 12021ft 297kts
28-Aug-18 18:14 36.338349 -114.548492 236 11996ft 297kts
28-Aug-18 18:15 36.293567 -114.635175 236 11993ft 299kts
28-Aug-18 18:16 36.251946 -114.715957 235 11987ft 258kts
28-Aug-18 18:17 36.210626 -114.795755 234 9122ft 283kts
28-Aug-18 18:18 36.170205 -114.873626 234 7993ft 251kts
28-Aug-18 18:19 36.136335 -114.949612 262 8005ft 259kts
28-Aug-18 18:20 36.110081 -115.023428 189 6934ft 243kts
28-Aug-18 18:21 36.047759 -115.006070 162 6008ft 223kts
28-Aug-18 18:22 36.004229 -114.960003 89 6044ft 239kts
28-Aug-18 18:23 36.023334 -114.882702 40 5689ft 255kts
28-Aug-18 18:24 36.079422 -114.905095 294 5040ft 248kts
28-Aug-18 18:25 36.099730 -114.983570 253 5016ft 239kts
28-Aug-18 18:26 36.073683 -115.054973 246 3459ft 209kts
28-Aug-18 18:27 36.073656 -115.118994 266 2242ft 164kts
28-Aug-18 18:28 36.072715 -115.184466 265 3410ft 205kts
28-Aug-18 18:29 36.067615 -115.255540 243 5460ft 216kts
28-Aug-18 18:30 36.005530 -115.280948 191 5006ft 241kts
28-Aug-18 18:31 35.947723 -115.272288 112 5083ft 238kts
28-Aug-18 18:32 35.961576 -115.193203 72 5044ft 238kts
28-Aug-18 18:33 35.982004 -115.122336 72 5028ft 217kts
28-Aug-18 18:34 36.007929 -115.055527 55 4707ft 209kts
28-Aug-18 18:35 36.044739 -115.007453 6 3889ft 187kts
28-Aug-18 18:36 36.080282 -115.037833 254 3511ft 169kts
28-Aug-18 18:37 36.073720 -115.093621 266 2611ft 164kts
28-Aug-18 18:38 36.073598 -115.143669 266 2095ft 73kts
28-Aug-18 18:39 36.074669 -115.150440 302 2119ft 0kts

Navigation Log

Ident Type
Flight plan parsing failed, navigation log unavailable